Time;durP1;ratioP1;P1;durP2;ratioP2;P2;SDS_P1;SDS_P2;PMS_P1;PMS_P2;Temp;Humidity;BMP_temperature;BMP_pressure;BME280_temperature;BME280_humidity;BME280_pressure;Samples;Min_cycle;Max_cycle;Signal;HPM_P1;HPM_P2
2022/08/24 00:00:17;;;;;;;1.30;1.20;;;;;;;20.29;60.15;98469.84;5087741;28;20572;-92
2022/08/24 00:02:44;;;;;;;1.60;1.15;;;;;;;20.41;60.52;98476.22;5088757;28;20040;-93
2022/08/24 00:05:10;;;;;;;1.08;1.08;;;;;;;20.38;60.27;98460.22;5088559;28;20063;-92
2022/08/24 00:07:36;;;;;;;1.20;1.10;;;;;;;20.41;60.37;98465.44;5089613;28;20060;-93
2022/08/24 00:10:06;;;;;;;1.45;1.00;;;;;;;20.37;60.44;98460.38;5089548;28;20052;-93
2022/08/24 00:12:32;;;;;;;1.80;1.20;;;;;;;20.31;61.16;98449.00;5088812;28;20036;-91
2022/08/24 00:14:58;;;;;;;1.33;1.10;;;;;;;20.36;61.42;98469.41;5089457;28;20036;-93
2022/08/24 00:17:24;;;;;;;1.83;1.13;;;;;;;20.37;60.92;98468.47;5084491;28;20036;-93
2022/08/24 00:19:52;;;;;;;2.28;1.20;;;;;;;20.28;61.19;98467.28;5086934;28;20066;-92
2022/08/24 00:22:18;;;;;;;1.25;1.20;;;;;;;20.30;61.63;98477.00;5074067;28;20040;-92
2022/08/24 00:24:43;;;;;;;1.67;1.20;;;;;;;20.34;61.43;98479.47;5074997;28;20058;-93
2022/08/24 00:27:11;;;;;;;1.20;1.10;;;;;;;20.30;61.88;98478.84;5072181;28;20041;-93
2022/08/24 00:29:37;;;;;;;3.50;1.25;;;;;;;20.20;62.18;98467.81;5072852;28;20036;-93
2022/08/24 00:32:03;;;;;;;1.52;1.23;;;;;;;20.29;62.33;98488.75;5075506;28;20039;-92
2022/08/24 00:34:30;;;;;;;1.38;1.20;;;;;;;20.19;62.35;98486.81;5075565;28;20167;-92
2022/08/24 00:36:58;;;;;;;2.40;1.35;;;;;;;20.11;62.77;98476.59;5075331;28;20498;-93
2022/08/24 00:39:24;;;;;;;2.15;1.25;;;;;;;20.12;62.98;98486.41;5076232;28;20041;-91
2022/08/24 00:41:51;;;;;;;4.07;1.40;;;;;;;20.03;63.43;98481.66;5077736;28;20040;-91
2022/08/24 00:44:18;;;;;;;2.08;1.38;;;;;;;20.03;63.36;98489.75;5067985;28;20040;-93
2022/08/24 00:46:48;;;;;;;1.80;1.30;;;;;;;19.93;63.97;98476.06;5077446;28;20040;-93
2022/08/24 00:49:24;;;;;;;1.23;1.13;;;;;;;19.94;64.29;98472.38;5074713;28;20072;-92
2022/08/24 00:51:55;;;;;;;1.98;1.35;;;;;;;20.03;64.04;98478.94;5073009;28;20131;-92
2022/08/24 00:54:26;;;;;;;1.60;1.20;;;;;;;19.99;64.66;98481.00;5074908;28;20036;-91
2022/08/24 00:56:58;;;;;;;1.50;1.40;;;;;;;19.96;64.93;98483.91;5073756;28;20052;-92
2022/08/24 00:59:27;;;;;;;1.40;1.10;;;;;;;19.84;65.16;98457.78;5074335;28;20041;-93
2022/08/24 01:01:56;;;;;;;2.38;1.50;;;;;;;19.87;65.03;98455.75;5075550;28;20131;-92
2022/08/24 01:04:28;;;;;;;1.80;1.40;;;;;;;19.93;64.76;98470.66;5075794;28;20040;-93
2022/08/24 01:06:55;;;;;;;2.10;1.42;;;;;;;19.96;65.39;98474.97;5074911;28;20051;-92
2022/08/24 01:09:23;;;;;;;1.50;1.40;;;;;;;20.00;64.82;98473.78;5074808;28;20037;-92
2022/08/24 01:11:49;;;;;;;1.60;1.40;;;;;;;20.03;65.28;98478.94;5076970;28;20044;-93
2022/08/24 01:14:16;;;;;;;1.60;1.50;;;;;;;19.93;65.26;98456.28;5076677;28;20549;-92
2022/08/24 01:19:45;;;;;;;3.78;1.60;;;;;;;19.95;65.50;98467.81;5092901;27;20377;-90
2022/08/24 01:22:28;;;;;;;1.65;1.35;;;;;;;19.95;65.44;98470.53;5092204;28;20048;-91
2022/08/24 01:24:56;;;;;;;1.45;1.30;;;;;;;19.92;65.72;98468.06;5090786;28;20131;-92
2022/08/24 01:27:22;;;;;;;1.67;1.55;;;;;;;19.93;65.97;98480.56;5090276;28;20036;-91
2022/08/24 01:29:50;;;;;;;2.03;1.40;;;;;;;19.86;65.90;98472.03;5092636;28;20050;-91
2022/08/24 01:32:19;;;;;;;3.08;1.50;;;;;;;19.83;66.32;98470.41;5091709;28;20075;-92
2022/08/24 01:34:45;;;;;;;1.92;1.40;;;;;;;19.81;66.28;98476.91;5088293;28;20044;-91
2022/08/24 01:37:10;;;;;;;3.00;1.30;;;;;;;19.73;66.76;98461.22;5092781;28;20486;-91
2022/08/24 01:39:40;;;;;;;1.40;1.30;;;;;;;19.74;67.00;98471.06;5092257;28;20050;-91
2022/08/24 01:42:07;;;;;;;2.03;1.60;;;;;;;19.74;67.21;98476.47;5091736;28;20028;-92
2022/08/24 01:44:35;;;;;;;2.00;1.50;;;;;;;19.74;67.32;98487.25;5092526;28;20037;-91
2022/08/24 01:47:03;;;;;;;1.45;1.30;;;;;;;19.72;67.61;98482.94;5090235;28;20042;-90
2022/08/24 01:49:34;;;;;;;1.92;1.58;;;;;;;19.67;67.80;98484.09;5090684;28;20040;-91
2022/08/24 01:52:00;;;;;;;2.05;1.52;;;;;;;19.56;68.03;98469.59;5089897;28;20057;-92
2022/08/24 01:54:27;;;;;;;1.70;1.38;;;;;;;19.64;68.69;98486.97;5092341;28;20089;-91
2022/08/24 01:56:53;;;;;;;2.97;1.60;;;;;;;19.62;67.71;98485.34;5092025;28;20071;-92
2022/08/24 01:59:21;;;;;;;2.30;1.55;;;;;;;19.50;68.40;98473.59;5091483;28;20044;-91
2022/08/24 02:01:51;;;;;;;1.70;1.40;;;;;;;19.59;68.32;98499.06;5091161;28;20045;-92
2022/08/24 02:04:17;;;;;;;1.67;1.50;;;;;;;19.61;68.68;98481.81;5089962;28;20105;-92
2022/08/24 02:06:43;;;;;;;1.95;1.50;;;;;;;19.59;68.53;98502.63;5091843;28;20494;-92
2022/08/24 02:09:10;;;;;;;1.90;1.70;;;;;;;19.54;68.38;98501.19;5091887;28;20064;-92
2022/08/24 02:11:37;;;;;;;2.63;1.50;;;;;;;19.62;68.00;98501.53;5091271;28;20110;-91
2022/08/24 02:14:04;;;;;;;1.92;1.60;;;;;;;19.55;68.67;98490.31;5092146;28;20039;-91
2022/08/24 02:16:31;;;;;;;2.53;1.42;;;;;;;19.54;68.13;98491.28;5089811;28;20100;-92
2022/08/24 02:18:57;;;;;;;2.15;1.58;;;;;;;19.63;68.16;98497.91;5089730;28;20040;-91
2022/08/24 02:21:24;;;;;;;1.90;1.30;;;;;;;19.73;68.11;98503.53;5090041;28;20452;-92
2022/08/24 02:23:51;;;;;;;2.95;1.77;;;;;;;19.67;68.43;98491.31;5090455;28;20067;-91
2022/08/24 02:26:17;;;;;;;1.88;1.40;;;;;;;19.71;68.35;98503.63;5090111;28;20044;-93
2022/08/24 02:28:43;;;;;;;2.35;1.63;;;;;;;19.62;68.31;98496.16;5089322;28;20063;-92
2022/08/24 02:31:11;;;;;;;1.90;1.58;;;;;;;19.57;68.49;98490.22;5075727;28;20040;-92
2022/08/24 02:33:39;;;;;;;2.05;1.58;;;;;;;19.60;68.66;98506.19;5076490;28;20055;-93
2022/08/24 02:36:08;;;;;;;3.28;1.60;;;;;;;19.50;68.80;98490.63;5076287;28;20047;-91
2022/08/24 02:38:34;;;;;;;2.57;1.53;;;;;;;19.63;69.23;98508.69;5076493;28;20114;-91
2022/08/24 02:41:00;;;;;;;2.08;1.50;;;;;;;19.55;68.57;98498.41;5076473;28;20354;-92
2022/08/24 02:43:26;;;;;;;3.08;1.50;;;;;;;19.54;68.76;98503.91;5076295;28;20043;-92
2022/08/24 02:45:52;;;;;;;1.70;1.40;;;;;;;19.33;69.05;98480.13;5076033;28;20048;-91
2022/08/24 02:48:19;;;;;;;2.13;1.70;;;;;;;19.43;69.38;98510.91;5076374;28;20045;-91
2022/08/24 02:50:48;;;;;;;2.47;1.75;;;;;;;19.37;69.55;98496.97;5076240;28;20044;-92
2022/08/24 02:53:16;;;;;;;3.15;1.55;;;;;;;19.30;69.92;98499.22;5075759;28;20490;-92
2022/08/24 02:55:43;;;;;;;2.35;1.70;;;;;;;19.28;70.17;98491.22;5075947;28;20048;-92
2022/08/24 02:58:11;;;;;;;2.10;1.70;;;;;;;19.37;69.79;98497.81;5075712;28;20123;-91
2022/08/24 03:00:42;;;;;;;2.03;1.60;;;;;;;19.45;69.41;98498.19;5075705;28;20135;-91
2022/08/24 03:03:08;;;;;;;2.70;1.60;;;;;;;19.42;69.22;98484.88;5075955;28;20420;-91
2022/08/24 03:05:35;;;;;;;2.40;1.60;;;;;;;19.58;69.30;98510.81;5075777;28;20090;-91
2022/08/24 03:08:03;;;;;;;2.90;1.55;;;;;;;19.52;69.04;98489.66;5075455;28;20047;-91
2022/08/24 03:10:29;;;;;;;3.13;1.60;;;;;;;19.58;68.81;98495.50;5075160;28;20128;-91
2022/08/24 03:12:55;;;;;;;2.75;1.70;;;;;;;19.65;68.80;98504.91;5075404;28;20564;-92
2022/08/24 03:15:21;;;;;;;2.13;1.60;;;;;;;19.68;68.29;98495.72;5075435;28;20043;-91
2022/08/24 03:17:48;;;;;;;2.83;1.50;;;;;;;19.67;68.57;98508.38;5075583;28;20398;-91
2022/08/24 03:20:17;;;;;;;2.25;1.60;;;;;;;19.65;68.32;98495.97;5073840;28;20036;-90
2022/08/24 03:22:43;;;;;;;2.25;1.40;;;;;;;19.68;68.57;98506.53;5074438;28;20032;-92
2022/08/24 03:25:13;;;;;;;1.60;1.50;;;;;;;19.64;68.40;98489.69;5075362;28;20033;-92
2022/08/24 03:27:39;;;;;;;1.88;1.50;;;;;;;19.71;68.34;98495.53;5075156;28;20040;-92
2022/08/24 03:30:09;;;;;;;3.08;1.60;;;;;;;19.73;68.32;98500.84;5075392;28;20116;-91
2022/08/24 03:32:35;;;;;;;1.77;1.55;;;;;;;19.73;68.48;98495.44;5075183;28;20132;-92
2022/08/24 03:35:01;;;;;;;2.85;1.60;;;;;;;19.73;68.49;98501.69;5074879;28;20061;-93
2022/08/24 03:37:27;;;;;;;2.20;1.60;;;;;;;19.64;68.70;98494.22;5074935;28;20134;-92
2022/08/24 03:39:53;;;;;;;2.55;1.60;;;;;;;19.59;68.86;98489.13;5074881;28;20131;-93
2022/08/24 03:42:20;;;;;;;2.38;1.52;;;;;;;19.55;68.93;98490.31;5074114;28;20119;-91
2022/08/24 03:44:46;;;;;;;2.15;1.45;;;;;;;19.50;69.89;98487.94;5075059;28;20804;-92
2022/08/24 03:47:12;;;;;;;1.95;1.50;;;;;;;19.42;69.82;98466.00;5069590;28;20067;-93
2022/08/24 03:49:38;;;;;;;2.92;1.50;;;;;;;19.45;69.59;98492.78;5074971;28;20037;-93
2022/08/24 03:52:05;;;;;;;1.88;1.70;;;;;;;19.57;69.27;98506.41;5074597;28;20032;-92
2022/08/24 03:54:31;;;;;;;3.22;1.60;;;;;;;19.56;68.62;98497.44;5074531;28;20045;-93
2022/08/24 03:56:58;;;;;;;2.97;1.60;;;;;;;19.51;69.47;98499.56;5071890;28;20056;-92
2022/08/24 03:59:26;;;;;;;2.55;1.50;;;;;;;19.37;69.44;98489.75;5074659;28;20049;-93
2022/08/24 04:01:54;;;;;;;3.53;1.73;;;;;;;19.39;69.59;98500.44;5074686;28;20041;-91
2022/08/24 04:04:20;;;;;;;2.00;1.60;;;;;;;19.28;69.17;98484.97;5074718;28;20066;-92
2022/08/24 04:06:47;;;;;;;3.83;1.80;;;;;;;19.41;69.58;98517.34;5074899;28;20028;-93
2022/08/24 04:09:14;;;;;;;2.75;1.60;;;;;;;19.24;69.77;98495.09;5074685;28;20060;-92
2022/08/24 04:11:42;;;;;;;1.85;1.50;;;;;;;19.27;69.81;98515.59;5074870;28;20131;-94
2022/08/24 04:14:09;;;;;;;4.00;1.60;;;;;;;19.11;69.80;98493.31;5074541;28;20037;-92
2022/08/24 04:16:36;;;;;;;3.97;1.70;;;;;;;19.11;70.59;98501.41;5074585;28;20048;-93
2022/08/24 04:19:02;;;;;;;3.17;1.60;;;;;;;19.21;69.99;98510.59;5074368;28;20072;-92
2022/08/24 04:21:31;;;;;;;2.70;1.60;;;;;;;19.26;69.71;98520.13;5074532;28;20157;-93
2022/08/24 04:23:58;;;;;;;2.28;1.50;;;;;;;19.14;69.90;98502.06;5074542;28;20052;-93
2022/08/24 04:26:27;;;;;;;1.60;1.50;;;;;;;19.22;69.96;98520.44;5074776;28;20044;-92
2022/08/24 04:28:53;;;;;;;2.78;1.75;;;;;;;19.12;70.48;98517.47;5074810;28;20090;-92
2022/08/24 04:31:19;;;;;;;2.47;1.63;;;;;;;19.15;70.11;98519.09;5074760;28;20037;-93
2022/08/24 04:33:49;;;;;;;2.85;1.48;;;;;;;19.21;69.81;98526.75;5074870;28;20135;-92
2022/08/24 04:36:16;;;;;;;3.20;1.50;;;;;;;19.17;70.84;98534.22;5074805;28;20043;-92
2022/08/24 04:38:42;;;;;;;2.10;1.63;;;;;;;19.05;70.93;98522.38;5074702;28;20505;-92
2022/08/24 04:41:13;;;;;;;1.80;1.50;;;;;;;19.16;70.42;98524.38;5074427;28;20041;-94
2022/08/24 04:43:43;;;;;;;2.25;1.58;;;;;;;19.17;69.94;98526.13;5074677;28;20049;-93
2022/08/24 04:46:13;;;;;;;1.83;1.50;;;;;;;19.27;69.82;98542.53;5074717;28;20476;-93
2022/08/24 04:48:41;;;;;;;2.67;1.80;;;;;;;19.24;69.89;98532.84;5074960;28;20569;-92
2022/08/24 04:51:10;;;;;;;1.70;1.40;;;;;;;19.13;70.15;98521.00;5074772;28;20053;-94
2022/08/24 04:53:36;;;;;;;2.33;1.55;;;;;;;19.16;69.65;98537.84;5074682;28;20490;-92
2022/08/24 04:56:03;;;;;;;15.73;1.90;;;;;;;19.29;69.54;98551.41;5075421;28;20033;-93
2022/08/24 04:58:30;;;;;;;1.63;1.40;;;;;;;19.31;69.59;98546.75;5074601;28;20144;-92
2022/08/24 05:00:56;;;;;;;1.65;1.50;;;;;;;19.23;69.24;98519.44;5074973;28;20040;-94
2022/08/24 05:03:22;;;;;;;2.47;1.60;;;;;;;19.27;70.09;98542.53;5074308;28;20039;-92
2022/08/24 05:05:50;;;;;;;3.55;1.60;;;;;;;19.25;69.76;98539.06;5074095;28;20068;-93
2022/08/24 05:08:18;;;;;;;2.95;1.60;;;;;;;19.29;69.60;98541.47;5074586;28;20045;-92
2022/08/24 05:10:47;;;;;;;5.45;1.77;;;;;;;19.37;70.19;98557.16;5074480;28;20039;-93
2022/08/24 05:13:13;;;;;;;1.75;1.50;;;;;;;19.24;71.02;98545.44;5074692;28;20494;-93
2022/08/24 05:15:40;;;;;;;4.35;1.80;;;;;;;19.16;70.58;98550.47;5074645;28;20371;-92
2022/08/24 05:18:06;;;;;;;2.03;1.70;;;;;;;19.33;69.28;98544.84;5074293;28;20064;-92
2022/08/24 05:20:34;;;;;;;2.35;1.60;;;;;;;19.50;68.29;98539.19;5074295;28;20041;-93
2022/08/24 05:23:01;;;;;;;2.03;1.67;;;;;;;19.63;68.35;98555.41;5074459;28;20048;-93
2022/08/24 05:25:28;;;;;;;3.30;1.58;;;;;;;19.59;68.20;98543.09;5074238;28;20379;-91
2022/08/24 05:27:54;;;;;;;2.72;1.50;;;;;;;19.74;67.45;98551.16;5075388;28;20461;-93
2022/08/24 05:30:20;;;;;;;2.90;1.60;;;;;;;19.88;67.23;98560.00;5075428;28;20114;-92
2022/08/24 05:32:47;;;;;;;2.25;1.48;;;;;;;19.96;67.14;98554.09;5075750;28;20126;-91
2022/08/24 05:35:13;;;;;;;1.38;1.27;;;;;;;20.16;66.65;98566.19;5075463;28;20044;-92
2022/08/24 05:37:40;;;;;;;1.60;1.50;;;;;;;20.20;65.79;98558.75;5075129;28;20529;-93
2022/08/24 05:40:09;;;;;;;1.50;1.40;;;;;;;20.34;65.30;98555.09;5073986;28;20086;-91
2022/08/24 05:42:38;;;;;;;1.45;1.35;;;;;;;20.54;65.43;98576.16;5073592;28;20506;-92
2022/08/24 05:45:05;;;;;;;2.83;1.55;;;;;;;20.62;64.96;98568.38;5071577;28;20033;-92
2022/08/24 05:47:33;;;;;;;1.63;1.50;;;;;;;20.80;64.68;98581.56;5072046;28;20036;-93
2022/08/24 05:49:59;;;;;;;2.60;1.73;;;;;;;20.91;64.47;98573.53;5072231;28;20512;-91
2022/08/24 05:52:26;;;;;;;2.00;1.50;;;;;;;21.03;64.02;98567.22;5070611;28;20037;-92
2022/08/24 05:54:53;;;;;;;3.30;1.40;;;;;;;21.10;62.80;98555.00;5070425;28;20064;-92
2022/08/24 05:57:19;;;;;;;1.60;1.40;;;;;;;21.26;61.76;98559.28;5072251;28;20041;-93
2022/08/24 05:59:47;;;;;;;2.13;1.50;;;;;;;21.41;62.20;98551.88;5073021;28;20459;-92
2022/08/24 06:02:13;;;;;;;2.70;1.50;;;;;;;21.52;61.18;98549.25;5072745;28;20059;-93
2022/08/24 06:04:39;;;;;;;2.17;1.30;;;;;;;21.74;60.92;98556.59;5072807;28;20068;-92
2022/08/24 06:07:08;;;;;;;1.60;1.42;;;;;;;21.74;60.95;98564.69;5075218;28;20155;-93
2022/08/24 06:09:35;;;;;;;2.78;1.42;;;;;;;21.76;61.18;98553.78;5076359;28;20052;-93
2022/08/24 06:12:01;;;;;;;1.50;1.40;;;;;;;21.73;60.13;98568.41;5075285;28;20048;-93
2022/08/24 06:14:27;;;;;;;2.15;1.40;;;;;;;21.80;59.59;98552.56;5077225;28;20045;-95
2022/08/24 06:16:55;;;;;;;2.00;1.40;;;;;;;21.84;59.38;98549.50;5077750;28;20033;-93
2022/08/24 06:19:21;;;;;;;2.58;1.58;;;;;;;21.90;60.37;98557.16;5077121;28;20040;-92
2022/08/24 06:21:50;;;;;;;7.35;1.70;;;;;;;22.11;58.89;98567.28;5077281;28;20057;-94
2022/08/24 06:24:16;;;;;;;2.30;1.40;;;;;;;22.25;58.50;98571.66;5077382;28;20040;-93
2022/08/24 06:29:44;;;;;;;2.47;1.48;;;;;;;22.11;59.60;98557.31;5130612;27;20371;-93
2022/08/24 06:32:10;;;;;;;2.47;1.48;;;;;;;22.13;58.93;98551.78;5130855;28;20039;-93
2022/08/24 06:34:38;;;;;;;1.58;1.40;;;;;;;22.24;58.05;98557.25;5131089;28;20038;-90
2022/08/24 06:37:04;;;;;;;2.43;1.50;;;;;;;22.41;58.01;98557.78;5130936;28;20066;-94
2022/08/24 06:39:30;;;;;;;1.77;1.27;;;;;;;22.63;56.79;98557.78;5131330;28;20339;-93
2022/08/24 06:41:56;;;;;;;3.45;1.45;;;;;;;22.56;57.66;98556.56;5132560;28;20047;-93
2022/08/24 06:44:22;;;;;;;4.10;1.38;;;;;;;22.46;57.43;98551.00;5131836;28;20558;-92
2022/08/24 06:46:51;;;;;;;1.95;1.42;;;;;;;22.58;56.78;98542.88;5132244;28;20132;-94
2022/08/24 06:49:17;;;;;;;1.55;1.30;;;;;;;22.71;56.18;98551.75;5128153;28;20397;-92
2022/08/24 06:51:43;;;;;;;1.40;1.30;;;;;;;22.90;56.35;98560.13;5130487;28;20036;-92
2022/08/24 06:54:09;;;;;;;4.05;1.40;;;;;;;22.96;56.19;98542.47;5130261;28;20050;-93
2022/08/24 06:56:36;;;;;;;1.67;1.50;;;;;;;22.96;56.28;98531.63;5130676;28;20039;-91
2022/08/24 06:59:03;;;;;;;2.45;1.33;;;;;;;22.65;57.08;98550.38;5129794;28;20031;-93
2022/08/24 07:01:29;;;;;;;2.65;1.50;;;;;;;22.66;57.31;98552.13;5130380;28;20043;-94
2022/08/24 07:03:56;;;;;;;2.45;1.40;;;;;;;22.68;56.71;98558.25;5130813;28;20507;-93
2022/08/24 07:06:23;;;;;;;2.50;1.40;;;;;;;22.39;57.23;98547.06;5130701;28;20039;-92
2022/08/24 07:08:50;;;;;;;2.95;1.58;;;;;;;22.61;57.63;98548.91;5130155;28;20535;-94
2022/08/24 07:11:17;;;;;;;1.52;1.42;;;;;;;22.84;57.80;98555.19;5128553;28;20073;-92
2022/08/24 07:13:45;;;;;;;2.65;1.45;;;;;;;22.91;56.77;98559.13;5131046;28;20392;-93
2022/08/24 07:16:11;;;;;;;1.30;1.20;;;;;;;23.28;55.30;98547.16;5130439;28;20032;-94
2022/08/24 07:18:37;;;;;;;1.70;1.42;;;;;;;23.15;55.95;98544.59;5130748;28;20400;-92
2022/08/24 07:21:05;;;;;;;1.92;1.40;;;;;;;23.42;54.84;98546.88;5130974;28;20039;-94
2022/08/24 07:23:31;;;;;;;3.80;1.35;;;;;;;23.48;54.63;98557.19;5131271;28;20048;-93
2022/08/24 07:26:04;;;;;;;3.17;1.67;;;;;;;23.42;55.06;98560.44;5131564;28;20119;-93
2022/08/24 07:28:30;;;;;;;1.77;1.40;;;;;;;23.52;54.21;98552.38;5129946;28;20049;-93
2022/08/24 07:30:56;;;;;;;2.10;1.45;;;;;;;23.63;53.26;98555.03;5131726;28;20039;-93
2022/08/24 07:33:23;;;;;;;1.40;1.30;;;;;;;23.67;53.39;98558.38;5131900;28;20028;-92
2022/08/24 07:35:48;;;;;;;3.90;1.58;;;;;;;23.70;53.37;98553.56;5131775;28;20088;-92
2022/08/24 07:38:16;;;;;;;1.92;1.52;;;;;;;23.83;53.27;98557.94;5130869;28;20031;-93
2022/08/24 07:40:46;;;;;;;2.42;1.50;;;;;;;23.74;52.99;98549.56;5118528;28;20382;-92
2022/08/24 07:43:13;;;;;;;3.40;1.60;;;;;;;24.05;53.29;98554.25;5118927;28;20040;-92
2022/08/24 07:45:40;;;;;;;2.17;1.60;;;;;;;24.05;52.02;98533.41;5117963;28;20044;-92
2022/08/24 07:48:06;;;;;;;2.72;1.63;;;;;;;24.04;51.69;98534.38;5116228;28;20107;-92
2022/08/24 07:50:33;;;;;;;2.63;1.73;;;;;;;23.88;52.48;98542.16;5116233;28;20130;-90
2022/08/24 07:52:59;;;;;;;2.38;1.60;;;;;;;24.21;52.04;98541.09;5115485;28;20126;-94
2022/08/24 07:55:26;;;;;;;3.00;1.90;;;;;;;24.39;51.51;98533.16;5116046;28;21077;-93
2022/08/24 07:57:52;;;;;;;4.25;1.80;;;;;;;24.30;51.31;98547.56;5116452;28;20694;-94
2022/08/24 08:00:19;;;;;;;2.97;1.70;;;;;;;24.37;51.39;98546.03;5116116;28;20035;-93
2022/08/24 08:02:46;;;;;;;3.30;1.60;;;;;;;24.82;50.82;98559.31;5116584;28;20131;-93
2022/08/24 08:05:12;;;;;;;2.97;1.90;;;;;;;24.53;50.28;98549.16;5116262;28;20057;-94
2022/08/24 08:07:38;;;;;;;3.45;1.67;;;;;;;24.68;50.54;98557.84;5115891;28;20032;-94
2022/08/24 08:10:05;;;;;;;2.35;1.70;;;;;;;24.71;49.38;98543.09;5116010;28;20122;-92
2022/08/24 08:12:34;;;;;;;2.85;1.70;;;;;;;24.77;49.68;98551.56;5115861;28;20051;-93
2022/08/24 08:15:00;;;;;;;2.85;1.80;;;;;;;24.58;50.43;98548.75;5115870;28;20036;-94
2022/08/24 08:17:26;;;;;;;3.08;1.88;;;;;;;25.13;49.61;98546.50;5116161;28;20044;-91
2022/08/24 08:19:53;;;;;;;4.30;2.00;;;;;;;25.37;48.60;98524.41;5115710;28;20051;-93
2022/08/24 08:25:19;;;;;;;3.05;1.80;;;;;;;25.58;47.93;98537.88;5138234;27;20375;-92
2022/08/24 08:27:45;;;;;;;3.55;1.80;;;;;;;25.14;49.50;98548.25;5135485;27;20035;-92
2022/08/24 08:30:12;;;;;;;2.20;1.73;;;;;;;25.17;49.52;98542.53;5135021;27;20217;-91
2022/08/24 08:32:38;;;;;;;3.05;1.60;;;;;;;25.55;47.05;98542.78;5134576;27;20047;-91
2022/08/24 08:35:05;;;;;;;2.42;1.50;;;;;;;25.87;46.88;98539.75;5135319;27;20035;-93
2022/08/24 08:37:31;;;;;;;2.13;1.50;;;;;;;25.93;46.57;98541.94;5136900;27;20047;-91
2022/08/24 08:39:57;;;;;;;2.63;1.50;;;;;;;26.16;45.91;98539.75;5135353;27;20035;-93
2022/08/24 08:42:37;;;;;;;3.70;1.30;;;;;;;26.27;45.03;98533.28;5140537;27;20415;-93
2022/08/24 08:45:20;;;;;;;2.47;1.60;;;;;;;26.36;45.31;98542.44;5132546;27;20036;-94
2022/08/24 08:48:30;;;;;;;1.65;1.30;;;;;;;26.50;45.19;98539.25;5139042;27;20039;-92
2022/08/24 08:51:22;;;;;;;1.50;1.25;;;;;;;25.99;45.38;98540.50;5134288;27;20040;-94
2022/08/24 08:54:12;;;;;;;2.88;1.17;;;;;;;26.46;46.33;98542.41;5089251;27;20052;-93
2022/08/24 08:56:48;;;;;;;1.77;1.40;;;;;;;26.57;44.42;98545.00;5142223;27;20089;-94
2022/08/24 08:59:31;;;;;;;3.33;1.40;;;;;;;27.03;44.26;98535.91;5137883;27;20125;-92
2022/08/24 09:02:13;;;;;;;3.25;1.30;;;;;;;27.19;43.76;98537.09;5134190;27;20035;-93
2022/08/24 09:05:03;;;;;;;3.78;1.33;;;;;;;27.00;45.01;98538.06;5138575;27;20052;-93
2022/08/24 09:07:43;;;;;;;2.13;1.40;;;;;;;27.73;42.35;98529.00;5133442;27;20459;-92
2022/08/24 09:10:22;;;;;;;2.90;1.40;;;;;;;27.99;41.23;98516.25;5135943;27;20123;-92
2022/08/24 09:13:03;;;;;;;2.20;1.50;;;;;;;28.29;41.03;98535.97;5134516;27;20039;-94
2022/08/24 09:15:59;;;;;;;1.73;1.40;;;;;;;28.12;40.57;98535.00;5136763;27;20035;-93
2022/08/24 09:18:48;;;;;;;1.73;1.35;;;;;;;27.19;43.03;98535.22;5135913;27;20531;-95
2022/08/24 09:21:48;;;;;;;2.63;1.42;;;;;;;27.32;42.17;98529.44;5138771;27;20035;-91
2022/08/24 09:24:36;;;;;;;3.47;1.40;;;;;;;27.57;41.86;98530.56;5119362;28;20069;-91
2022/08/24 09:27:14;;;;;;;2.70;1.47;;;;;;;26.81;44.72;98523.50;5132940;27;20047;-92
2022/08/24 09:29:56;;;;;;;2.78;1.40;;;;;;;26.67;44.32;98524.00;5136312;27;20077;-92
2022/08/24 09:32:41;;;;;;;5.30;1.50;;;;;;;27.02;43.65;98522.41;5139048;27;20122;-95
2022/08/24 09:35:13;;;;;;;3.85;1.60;;;;;;;26.62;43.63;98526.31;5126749;27;20028;-92
2022/08/24 09:37:56;;;;;;;1.55;1.45;;;;;;;27.25;42.12;98512.81;5123467;27;20040;-91
2022/08/24 09:40:35;;;;;;;2.20;1.40;;;;;;;27.20;42.62;98501.47;5120341;27;20048;-93
2022/08/24 09:43:48;;;;;;;4.50;1.35;;;;;;;26.86;43.75;98516.75;5119422;27;20489;-93
2022/08/24 09:46:45;;;;;;;1.83;1.30;;;;;;;26.66;41.97;98521.44;5123803;27;20055;-92
2022/08/24 09:49:41;;;;;;;1.50;1.40;;;;;;;26.64;43.04;98514.25;5123141;27;20040;-92
2022/08/24 09:52:33;;;;;;;2.70;1.40;;;;;;;26.95;43.29;98503.03;5128982;27;20043;-92
2022/08/24 09:55:42;;;;;;;2.38;1.40;;;;;;;27.17;41.77;98504.53;5122157;27;20106;-93
2022/08/24 09:58:17;;;;;;;2.72;1.50;;;;;;;27.34;41.51;98510.16;5124239;27;20127;-93
2022/08/24 10:00:47;;;;;;;1.90;1.45;;;;;;;27.09;40.97;98517.19;5116987;28;20036;-92
2022/08/24 10:03:36;;;;;;;1.92;1.40;;;;;;;26.60;42.50;98492.88;5123805;27;20074;-92
2022/08/24 10:06:18;;;;;;;2.40;1.40;;;;;;;26.42;42.77;98488.19;5120768;27;20092;-92
2022/08/24 10:09:01;;;;;;;1.17;1.10;;;;;;;25.89;43.89;98493.34;5121439;27;20046;-92
2022/08/24 10:11:41;;;;;;;2.03;1.50;;;;;;;25.83;44.37;98498.34;5127437;27;20035;-92
2022/08/24 10:14:15;;;;;;;3.40;1.63;;;;;;;25.68;44.78;98512.56;5118325;27;20043;-93
2022/08/24 10:16:53;;;;;;;2.72;1.48;;;;;;;26.09;44.12;98507.78;5118699;27;20058;-92
2022/08/24 10:19:54;;;;;;;3.20;1.42;;;;;;;26.05;43.93;98506.38;5120695;27;20114;-92
2022/08/24 10:22:57;;;;;;;1.65;1.40;;;;;;;26.16;43.29;98500.75;5119809;27;20076;-93
2022/08/24 10:25:33;;;;;;;2.78;1.42;;;;;;;26.42;43.34;98503.69;5117086;27;20036;-92
2022/08/24 10:28:15;;;;;;;3.42;1.50;;;;;;;26.53;42.93;98489.00;5127919;27;20122;-94
2022/08/24 10:30:56;;;;;;;2.33;1.45;;;;;;;26.85;42.15;98483.16;5120271;27;20032;-93
2022/08/24 10:33:25;;;;;;;2.33;1.50;;;;;;;26.64;42.51;98488.84;5123040;27;20097;-92
2022/08/24 10:36:38;;;;;;;2.17;1.60;;;;;;;26.60;42.58;98495.63;5127565;27;20070;-91
2022/08/24 10:39:41;;;;;;;2.63;1.50;;;;;;;26.60;43.40;98499.19;5095168;28;20063;-92
2022/08/24 10:46:14;;;;;;;2.20;1.50;;;;;;;26.11;44.36;98484.84;5113570;27;20428;-96
2022/08/24 10:49:07;;;;;;;3.45;1.48;;;;;;;26.33;43.56;98485.50;5111599;28;20036;-94
2022/08/24 10:51:42;;;;;;;1.85;1.50;;;;;;;26.52;42.40;98479.94;5112006;28;20042;-94
2022/08/24 10:54:11;;;;;;;2.08;1.45;;;;;;;26.74;41.93;98480.59;5111930;28;20039;-94
2022/08/24 10:56:40;;;;;;;2.90;1.45;;;;;;;27.09;40.69;98468.94;5111211;28;20036;-95
2022/08/24 10:59:18;;;;;;;2.80;1.35;;;;;;;27.87;40.41;98473.81;5111838;28;20061;-90
2022/08/24 11:02:04;;;;;;;3.15;1.40;;;;;;;27.61;40.03;98451.91;5110910;28;20464;-92
2022/08/24 11:04:32;;;;;;;2.13;1.40;;;;;;;27.79;39.38;98465.53;5110530;28;20035;-92
2022/08/24 11:07:08;;;;;;;1.98;1.42;;;;;;;27.53;40.05;98458.13;5113786;28;20130;-93
2022/08/24 11:09:47;;;;;;;2.35;1.40;;;;;;;27.71;40.20;98458.09;5109680;28;20105;-93
2022/08/24 11:12:22;;;;;;;2.08;1.50;;;;;;;27.30;40.85;98440.50;5111521;28;20079;-94
2022/08/24 11:14:50;;;;;;;2.42;1.40;;;;;;;27.41;41.17;98467.56;5112413;28;20035;-92
2022/08/24 11:17:20;;;;;;;1.80;1.60;;;;;;;27.79;40.46;98469.13;5112398;28;20567;-93
2022/08/24 11:19:47;;;;;;;2.38;1.40;;;;;;;27.72;39.47;98475.38;5111188;28;20036;-92
2022/08/24 11:22:40;;;;;;;1.45;1.30;;;;;;;27.71;39.05;98462.72;5111940;28;20448;-93
2022/08/24 11:25:14;;;;;;;3.10;1.50;;;;;;;27.34;40.92;98458.28;5099738;28;20397;-92
2022/08/24 11:27:42;;;;;;;1.67;1.30;;;;;;;27.45;40.42;98472.59;5114217;28;20054;-93
2022/08/24 11:30:20;;;;;;;2.47;1.60;;;;;;;27.86;39.95;98478.41;5114252;28;20051;-95
2022/08/24 11:32:52;;;;;;;1.80;1.33;;;;;;;27.65;40.11;98458.72;5113119;28;20130;-95
2022/08/24 11:35:23;;;;;;;2.10;1.30;;;;;;;27.50;40.45;98458.47;5111720;28;20055;-95
2022/08/24 11:37:51;;;;;;;2.53;1.30;;;;;;;27.92;39.85;98456.94;5111807;28;20047;-92
2022/08/24 11:40:19;;;;;;;2.92;1.30;;;;;;;27.79;40.28;98468.25;5106138;28;20572;-93
2022/08/24 11:43:19;;;;;;;2.28;1.40;;;;;;;27.11;40.49;98490.59;5110479;28;20040;-94
2022/08/24 11:45:53;;;;;;;3.60;1.50;;;;;;;26.55;41.58;98487.00;5103410;28;20047;-91
2022/08/24 11:48:34;;;;;;;1.73;1.40;;;;;;;26.66;40.92;98488.72;5109344;28;20121;-93
2022/08/24 11:51:07;;;;;;;3.53;1.60;;;;;;;26.95;41.34;98489.41;5106006;28;20047;-94
2022/08/24 11:53:42;;;;;;;2.83;1.40;;;;;;;27.44;39.78;98480.94;5110796;28;20104;-94
2022/08/24 11:56:17;;;;;;;2.47;1.50;;;;;;;27.95;38.49;98482.06;5101497;28;20040;-92
2022/08/24 11:58:51;;;;;;;2.20;1.38;;;;;;;28.26;36.88;98467.94;5095472;28;20127;-93
2022/08/24 12:01:24;;;;;;;2.13;1.40;;;;;;;27.61;38.52;98463.69;5096610;28;20126;-93
2022/08/24 12:04:12;;;;;;;2.08;1.50;;;;;;;27.53;38.28;98449.94;5097237;28;20043;-95